createdAt,value
2023-04-16T00:02:15.166Z,11.25
2023-04-16T00:04:42.441Z,11.98
2023-04-16T00:07:09.955Z,12.50
2023-04-16T00:09:37.010Z,12.70
2023-04-16T00:12:04.640Z,10.98
2023-04-16T00:14:31.764Z,12.02
2023-04-16T00:16:59.155Z,12.70
2023-04-16T00:19:26.272Z,12.27
2023-04-16T00:21:53.813Z,14.30
2023-04-16T00:24:21.045Z,13.50
2023-04-16T00:26:48.403Z,11.95
2023-04-16T00:29:15.583Z,13.30
2023-04-16T00:31:42.880Z,11.38
2023-04-16T00:34:10.052Z,12.10
2023-04-16T00:36:37.391Z,10.07
2023-04-16T00:39:05.542Z,11.15
2023-04-16T00:41:33.027Z,10.98
2023-04-16T00:44:00.008Z,12.05
2023-04-16T00:46:27.858Z,13.00
2023-04-16T00:48:55.786Z,11.20
2023-04-16T00:51:23.560Z,12.70
2023-04-16T00:53:50.931Z,11.30
2023-04-16T00:56:20.522Z,12.32
2023-04-16T00:58:49.330Z,11.70
2023-04-16T01:01:16.782Z,12.35
2023-04-16T01:03:46.400Z,11.23
2023-04-16T01:08:41.413Z,12.88
2023-04-16T01:11:09.726Z,11.05
2023-04-16T01:13:40.037Z,11.15
2023-04-16T01:16:09.287Z,11.05
2023-04-16T01:18:36.983Z,11.77
2023-04-16T01:21:05.036Z,12.43
2023-04-16T01:23:32.418Z,9.80
2023-04-16T01:25:59.856Z,9.65
2023-04-16T01:28:27.274Z,12.90
2023-04-16T01:30:54.617Z,10.98
2023-04-16T01:33:37.934Z,13.07
2023-04-16T01:36:07.401Z,11.15
2023-04-16T01:38:34.652Z,14.77
2023-04-16T01:41:01.977Z,10.98
2023-04-16T01:43:29.512Z,9.93
2023-04-16T01:46:09.778Z,11.30
2023-04-16T01:51:04.954Z,13.52
2023-04-16T01:53:32.227Z,10.50
2023-04-16T01:55:59.614Z,12.55
2023-04-16T01:58:29.601Z,11.13
2023-04-16T02:00:57.308Z,13.20
2023-04-16T02:03:24.930Z,10.30
2023-04-16T02:05:53.762Z,12.07
2023-04-16T02:08:20.896Z,15.40
2023-04-16T02:10:50.062Z,10.85
2023-04-16T02:13:17.422Z,11.83
2023-04-16T02:15:48.948Z,10.98
2023-04-16T02:18:20.974Z,14.02
2023-04-16T02:20:49.813Z,12.05
2023-04-16T02:23:17.810Z,12.43
2023-04-16T02:25:47.321Z,12.63
2023-04-16T02:30:45.405Z,12.65
2023-04-16T02:33:13.991Z,17.90
2023-04-16T02:35:51.175Z,12.35
2023-04-16T02:38:18.162Z,13.77
2023-04-16T02:40:45.654Z,14.55
2023-04-16T02:43:12.756Z,14.00
2023-04-16T02:45:40.320Z,14.43
2023-04-16T02:48:08.748Z,13.48
2023-04-16T02:50:36.204Z,14.15
2023-04-16T02:53:04.305Z,13.13
2023-04-16T02:55:31.577Z,12.85
2023-04-16T02:57:58.558Z,15.68
2023-04-16T03:00:25.817Z,14.52
2023-04-16T03:02:52.996Z,11.73
2023-04-16T03:05:20.590Z,13.77
2023-04-16T03:07:47.644Z,12.38
2023-04-16T03:10:16.686Z,12.23
2023-04-16T03:12:43.772Z,14.32
2023-04-16T03:15:11.192Z,11.60
2023-04-16T03:17:38.285Z,11.70
2023-04-16T03:20:06.634Z,13.35
2023-04-16T03:22:33.804Z,12.45
2023-04-16T03:25:01.307Z,11.40
2023-04-16T03:27:28.326Z,15.25
2023-04-16T03:29:55.932Z,12.23
2023-04-16T03:32:22.941Z,14.10
2023-04-16T03:34:50.379Z,14.00
2023-04-16T03:37:17.344Z,13.25
2023-04-16T03:39:44.673Z,14.00
2023-04-16T03:42:12.856Z,13.68
2023-04-16T03:44:40.418Z,13.38
2023-04-16T03:47:09.423Z,14.30
2023-04-16T03:49:36.817Z,13.77
2023-04-16T03:52:03.869Z,14.32
2023-04-16T03:54:31.369Z,16.35
2023-04-16T03:57:10.114Z,14.27
2023-04-16T03:59:38.109Z,15.90
2023-04-16T04:02:05.442Z,14.68
2023-04-16T04:04:33.031Z,15.52
2023-04-16T04:07:00.082Z,15.80
2023-04-16T04:09:28.398Z,14.40
2023-04-16T04:11:55.918Z,14.50
2023-04-16T04:14:23.273Z,15.57
2023-04-16T04:16:50.290Z,15.48
2023-04-16T04:19:17.704Z,16.23
2023-04-16T04:21:44.821Z,15.70
2023-04-16T04:24:12.177Z,16.77
2023-04-16T04:26:39.179Z,15.82
2023-04-16T04:29:06.572Z,19.05
2023-04-16T04:31:33.751Z,15.60
2023-04-16T04:34:02.925Z,16.25
2023-04-16T04:36:30.014Z,15.27
2023-04-16T04:38:57.274Z,16.20
2023-04-16T04:41:24.673Z,17.67
2023-04-16T04:43:52.322Z,13.82
2023-04-16T04:46:19.481Z,15.88
2023-04-16T04:48:46.954Z,16.58
2023-04-16T04:51:16.847Z,17.40
2023-04-16T04:53:47.141Z,16.65
2023-04-16T04:56:14.146Z,15.25
2023-04-16T04:58:42.075Z,15.48
2023-04-16T05:01:09.277Z,14.90
2023-04-16T05:03:36.869Z,15.45
2023-04-16T05:06:04.220Z,16.80
2023-04-16T05:08:31.490Z,17.25
2023-04-16T05:10:58.527Z,16.17
2023-04-16T05:13:26.317Z,16.20
2023-04-16T05:15:53.677Z,16.40
2023-04-16T05:18:21.381Z,18.65
2023-04-16T05:20:48.704Z,16.60
2023-04-16T05:23:16.367Z,15.93
2023-04-16T05:25:43.423Z,15.88
2023-04-16T05:28:10.904Z,15.20
2023-04-16T05:30:38.389Z,15.68
2023-04-16T05:33:05.831Z,18.58
2023-04-16T05:35:32.962Z,15.85
2023-04-16T05:38:00.432Z,16.40
2023-04-16T05:40:27.536Z,17.40
2023-04-16T05:42:54.889Z,16.30
2023-04-16T05:45:22.154Z,16.65
2023-04-16T05:47:49.520Z,18.27
2023-04-16T05:50:16.641Z,18.08
2023-04-16T05:52:44.000Z,14.18
2023-04-16T05:55:11.260Z,16.33
2023-04-16T05:57:38.565Z,14.30
2023-04-16T06:00:06.387Z,14.70
2023-04-16T06:02:39.706Z,15.85
2023-04-16T06:05:07.316Z,16.05
2023-04-16T06:07:34.599Z,14.27
2023-04-16T06:10:01.642Z,15.35
2023-04-16T06:12:28.940Z,12.73
2023-04-16T06:14:56.433Z,14.25
2023-04-16T06:17:23.973Z,17.80
2023-04-16T06:19:51.146Z,13.15
2023-04-16T06:22:18.625Z,16.17
2023-04-16T06:24:45.897Z,13.60
2023-04-16T06:27:16.000Z,12.18
2023-04-16T06:29:43.338Z,13.05
2023-04-16T06:32:11.082Z,14.00
2023-04-16T06:34:39.047Z,11.65
2023-04-16T06:37:09.119Z,13.27
2023-04-16T06:39:37.751Z,12.82
2023-04-16T06:42:05.417Z,14.50
2023-04-16T06:44:36.062Z,14.55
2023-04-16T06:47:03.828Z,15.18
2023-04-16T06:49:31.210Z,12.48
2023-04-16T06:51:58.593Z,11.60
2023-04-16T06:54:25.739Z,12.68
2023-04-16T06:56:53.286Z,11.85
2023-04-16T06:59:20.476Z,12.30
2023-04-16T07:01:48.173Z,11.35
2023-04-16T07:04:15.852Z,12.65
2023-04-16T07:06:43.271Z,14.98
2023-04-16T07:09:10.845Z,14.38
2023-04-16T07:11:38.718Z,12.43
2023-04-16T07:14:06.076Z,11.48
2023-04-16T07:16:33.725Z,14.70
2023-04-16T07:19:00.852Z,12.35
2023-04-16T07:21:28.212Z,11.32
2023-04-16T07:23:55.386Z,11.52
2023-04-16T07:26:22.870Z,8.32
2023-04-16T07:28:49.966Z,9.02
2023-04-16T07:31:17.489Z,8.27
2023-04-16T07:33:44.623Z,9.10
2023-04-16T07:36:12.383Z,9.15
2023-04-16T07:38:39.450Z,8.15
2023-04-16T07:41:06.770Z,9.45
2023-04-16T07:43:33.839Z,10.02
2023-04-16T07:46:01.664Z,9.57
2023-04-16T07:48:28.818Z,8.05
2023-04-16T07:50:56.429Z,8.90
2023-04-16T07:53:23.485Z,8.30
2023-04-16T07:55:50.859Z,7.55
2023-04-16T07:58:18.389Z,8.90
2023-04-16T08:00:45.712Z,7.20
2023-04-16T08:03:13.386Z,7.05
2023-04-16T08:05:40.747Z,6.38
2023-04-16T08:08:08.235Z,6.45
2023-04-16T08:10:35.652Z,4.72
2023-04-16T08:13:03.235Z,6.13
2023-04-16T08:15:31.165Z,6.88
2023-04-16T08:17:59.629Z,6.03
2023-04-16T08:20:26.890Z,4.00
2023-04-16T08:22:54.931Z,4.97
2023-04-16T08:25:24.653Z,6.13
2023-04-16T08:30:19.313Z,6.10
2023-04-16T08:32:49.407Z,5.72
2023-04-16T08:35:17.213Z,4.40
2023-04-16T08:37:44.745Z,4.03
2023-04-16T08:40:12.337Z,4.32
2023-04-16T08:42:48.819Z,5.32
2023-04-16T08:45:17.924Z,7.20
2023-04-16T08:47:50.271Z,4.70
2023-04-16T08:50:22.426Z,5.40
2023-04-16T08:53:06.841Z,4.88
2023-04-16T08:55:38.539Z,4.93
2023-04-16T08:58:14.757Z,4.78
2023-04-16T09:00:43.426Z,4.95
2023-04-16T09:03:11.304Z,5.38
2023-04-16T09:05:39.300Z,5.32
2023-04-16T09:08:07.140Z,4.32
2023-04-16T09:10:35.248Z,4.63
2023-04-16T09:13:02.765Z,4.50
2023-04-16T09:15:30.760Z,5.25
2023-04-16T09:17:58.190Z,5.20
2023-04-16T09:20:25.400Z,7.78
2023-04-16T09:22:52.919Z,5.55
2023-04-16T09:25:22.622Z,5.78
2023-04-16T09:30:22.350Z,5.25
2023-04-16T09:32:51.383Z,5.00
2023-04-16T09:35:19.893Z,5.18
2023-04-16T09:37:56.872Z,4.53
2023-04-16T09:40:30.406Z,6.35
2023-04-16T09:42:58.631Z,3.88
2023-04-16T09:45:26.272Z,3.67
2023-04-16T09:48:03.517Z,4.38
2023-04-16T09:50:30.871Z,3.03
2023-04-16T09:53:03.634Z,3.42
2023-04-16T09:55:30.929Z,3.72
2023-04-16T09:58:02.177Z,3.65
2023-04-16T10:00:31.682Z,2.35
2023-04-16T10:03:07.093Z,3.25
2023-04-16T10:05:34.994Z,3.70
2023-04-16T10:08:03.229Z,3.35
2023-04-16T10:10:30.554Z,2.55
2023-04-16T10:12:58.465Z,3.05
2023-04-16T10:15:26.043Z,2.38
2023-04-16T10:17:54.341Z,3.20
2023-04-16T10:20:22.892Z,3.45
2023-04-16T10:22:50.841Z,4.20
2023-04-16T10:25:18.508Z,4.03
2023-04-16T10:27:46.612Z,6.70
2023-04-16T10:30:15.936Z,4.60
2023-04-16T10:32:44.573Z,4.25
2023-04-16T10:35:16.872Z,5.28
2023-04-16T10:37:45.261Z,5.78
2023-04-16T10:40:26.665Z,4.95
2023-04-16T10:42:58.608Z,4.45
2023-04-16T10:45:47.772Z,5.47
2023-04-16T10:48:19.304Z,7.13
2023-04-16T10:50:57.825Z,6.35
2023-04-16T10:53:27.681Z,4.65
2023-04-16T10:56:04.646Z,4.38
2023-04-16T10:58:35.328Z,4.32
2023-04-16T11:01:11.366Z,6.32
2023-04-16T11:03:43.727Z,4.95
2023-04-16T11:06:23.910Z,4.32
2023-04-16T11:08:54.993Z,4.75
2023-04-16T11:11:39.670Z,4.25
2023-04-16T11:14:10.326Z,5.13
2023-04-16T11:16:40.732Z,3.95
2023-04-16T11:19:08.139Z,3.78
2023-04-16T11:21:36.510Z,4.18
2023-04-16T11:24:05.584Z,3.83
2023-04-16T11:26:32.578Z,3.92
2023-04-16T11:29:00.341Z,3.67
2023-04-16T11:31:27.703Z,3.60
2023-04-16T11:33:56.608Z,4.05
2023-04-16T11:36:26.101Z,3.97
2023-04-16T11:39:02.385Z,3.33
2023-04-16T11:41:29.734Z,6.20
2023-04-16T11:43:57.549Z,3.75
2023-04-16T11:46:38.622Z,3.88
2023-04-16T11:49:07.100Z,4.38
2023-04-16T11:51:43.100Z,4.07
2023-04-16T11:54:19.876Z,3.22
2023-04-16T11:56:49.368Z,3.67
2023-04-16T12:01:51.271Z,3.90
2023-04-16T12:04:21.175Z,4.47
2023-04-16T12:07:12.020Z,3.55
2023-04-16T12:09:44.068Z,3.00
2023-04-16T12:12:32.226Z,7.47
2023-04-16T12:15:03.269Z,4.70
2023-04-16T12:17:33.359Z,3.60
2023-04-16T12:22:31.581Z,5.13
2023-04-16T12:25:00.080Z,4.90
2023-04-16T12:27:43.719Z,5.32
2023-04-16T12:30:12.152Z,5.10
2023-04-16T12:32:41.224Z,4.22
2023-04-16T12:35:10.882Z,5.35
2023-04-16T12:37:39.522Z,4.05
2023-04-16T12:40:07.801Z,4.63
2023-04-16T12:42:36.186Z,5.10
2023-04-16T12:45:05.273Z,5.05
2023-04-16T12:47:33.835Z,5.60
2023-04-16T12:50:02.569Z,4.80
2023-04-16T12:52:31.100Z,4.70
2023-04-16T12:54:59.479Z,6.20
2023-04-16T12:57:28.850Z,4.60
2023-04-16T12:59:57.466Z,4.40
2023-04-16T13:02:25.800Z,5.38
2023-04-16T13:04:53.981Z,4.30
2023-04-16T13:07:21.388Z,4.43
2023-04-16T13:09:48.813Z,6.78
2023-04-16T13:12:16.248Z,4.22
2023-04-16T13:14:45.094Z,4.50
2023-04-16T13:17:12.402Z,6.22
2023-04-16T13:19:39.990Z,4.53
2023-04-16T13:22:07.425Z,5.43
2023-04-16T13:24:35.821Z,9.25
2023-04-16T13:27:03.734Z,6.60
2023-04-16T13:29:31.495Z,8.15
2023-04-16T13:31:58.749Z,5.68
2023-04-16T13:34:26.642Z,5.13
2023-04-16T13:36:53.717Z,5.05
2023-04-16T13:39:21.213Z,6.80
2023-04-16T13:41:49.085Z,7.80
2023-04-16T13:44:16.506Z,6.65
2023-04-16T13:46:47.760Z,6.10
2023-04-16T13:49:16.264Z,6.15
2023-04-16T13:51:44.668Z,6.10
2023-04-16T13:54:12.460Z,7.43
2023-04-16T13:56:40.996Z,7.55
2023-04-16T13:59:09.128Z,6.37
2023-04-16T14:01:36.826Z,5.28
2023-04-16T14:04:07.716Z,6.05
2023-04-16T14:06:35.751Z,6.60
2023-04-16T14:09:04.341Z,6.45
2023-04-16T14:11:32.119Z,7.22
2023-04-16T14:14:00.240Z,5.93
2023-04-16T14:16:28.031Z,6.60
2023-04-16T14:18:56.633Z,7.72
2023-04-16T14:21:23.987Z,7.28
2023-04-16T14:23:51.630Z,7.60
2023-04-16T14:26:18.891Z,6.45
2023-04-16T14:28:46.284Z,6.00
2023-04-16T14:31:13.674Z,6.43
2023-04-16T14:33:41.664Z,6.13
2023-04-16T14:36:09.948Z,6.35
2023-04-16T14:38:37.577Z,7.13
2023-04-16T14:41:04.804Z,7.25
2023-04-16T14:43:32.589Z,6.05
2023-04-16T14:46:00.242Z,6.75
2023-04-16T14:48:28.129Z,6.90
2023-04-16T14:50:55.625Z,6.00
2023-04-16T14:53:24.780Z,7.18
2023-04-16T14:55:52.496Z,7.43
2023-04-16T14:58:20.461Z,8.05
2023-04-16T15:00:48.100Z,7.35
2023-04-16T15:03:16.279Z,9.85
2023-04-16T15:05:44.146Z,9.07
2023-04-16T15:08:12.469Z,10.80
2023-04-16T15:10:39.972Z,8.40
2023-04-16T15:13:07.792Z,10.43
2023-04-16T15:15:35.610Z,8.95
2023-04-16T15:18:06.375Z,13.27
2023-04-16T15:20:34.329Z,9.57
2023-04-16T15:23:02.892Z,9.25
2023-04-16T15:25:30.473Z,9.60
2023-04-16T15:27:59.617Z,8.90
2023-04-16T15:30:27.226Z,11.52
2023-04-16T15:32:55.370Z,10.75
2023-04-16T15:35:23.063Z,13.50
2023-04-16T15:37:52.913Z,12.63
2023-04-16T15:40:20.739Z,12.00
2023-04-16T15:42:48.907Z,14.15
2023-04-16T15:45:16.685Z,11.90
2023-04-16T15:47:51.402Z,8.95
2023-04-16T15:50:20.026Z,10.65
2023-04-16T15:52:48.196Z,13.55
2023-04-16T15:55:17.404Z,9.63
2023-04-16T15:57:45.139Z,9.65
2023-04-16T16:00:18.914Z,13.00
2023-04-16T16:02:47.530Z,8.70
2023-04-16T16:05:16.236Z,9.80
2023-04-16T16:07:44.730Z,12.23
2023-04-16T16:10:13.428Z,9.48
2023-04-16T16:12:41.798Z,8.55
2023-04-16T16:15:11.200Z,8.70
2023-04-16T16:17:39.403Z,10.45
2023-04-16T16:20:10.875Z,8.07
2023-04-16T16:22:40.072Z,6.82
2023-04-16T16:25:08.662Z,9.95
2023-04-16T16:27:37.358Z,9.20
2023-04-16T16:30:07.372Z,7.28
2023-04-16T16:32:35.641Z,9.32
2023-04-16T16:35:03.423Z,9.02
2023-04-16T16:37:31.368Z,12.55
2023-04-16T16:39:58.553Z,10.15
2023-04-16T16:42:26.743Z,10.90
2023-04-16T16:44:56.011Z,12.60
2023-04-16T16:47:25.596Z,8.80
2023-04-16T16:49:54.860Z,10.88
2023-04-16T16:52:24.280Z,11.57
2023-04-16T16:54:54.113Z,10.68
2023-04-16T16:57:22.315Z,11.32
2023-04-16T16:59:54.517Z,13.18
2023-04-16T17:02:22.204Z,10.60
2023-04-16T17:04:50.364Z,14.85
2023-04-16T17:07:18.632Z,11.75
2023-04-16T17:09:46.361Z,12.40
2023-04-16T17:12:14.156Z,11.77
2023-04-16T17:14:41.471Z,9.90
2023-04-16T17:17:10.163Z,14.18
2023-04-16T17:19:37.694Z,14.85
2023-04-16T17:22:05.748Z,11.90
2023-04-16T17:24:33.225Z,16.13
2023-04-16T17:27:01.765Z,21.00
2023-04-16T17:29:30.260Z,18.55
2023-04-16T17:31:58.267Z,13.98
2023-04-16T17:34:25.859Z,13.52
2023-04-16T17:36:54.382Z,14.43
2023-04-16T17:39:22.741Z,15.45
2023-04-16T17:41:54.442Z,18.15
2023-04-16T17:44:23.429Z,12.15
2023-04-16T17:46:52.209Z,15.35
2023-04-16T17:49:20.794Z,13.80
2023-04-16T17:51:51.548Z,12.93
2023-04-16T17:54:19.914Z,15.02
2023-04-16T17:56:47.942Z,14.13
2023-04-16T17:59:15.865Z,15.02
2023-04-16T18:01:44.985Z,14.43
2023-04-16T18:04:13.128Z,13.20
2023-04-16T18:06:41.331Z,15.63
2023-04-16T18:09:09.558Z,14.25
2023-04-16T18:11:38.067Z,14.43
2023-04-16T18:14:06.196Z,13.15
2023-04-16T18:16:34.826Z,12.15
2023-04-16T18:19:03.283Z,16.63
2023-04-16T18:21:32.100Z,18.08
2023-04-16T18:24:01.211Z,14.80
2023-04-16T18:26:30.064Z,12.65
2023-04-16T18:28:57.640Z,11.73
2023-04-16T18:31:26.816Z,15.50
2023-04-16T18:33:58.141Z,12.93
2023-04-16T18:36:27.506Z,13.02
2023-04-16T18:39:01.469Z,17.67
2023-04-16T18:41:31.445Z,16.13
2023-04-16T18:43:59.237Z,21.70
2023-04-16T18:46:27.637Z,23.58
2023-04-16T18:48:55.826Z,28.23
2023-04-16T18:51:24.119Z,14.75
2023-04-16T18:53:52.052Z,68.03
2023-04-16T18:56:20.065Z,32.35
2023-04-16T18:58:48.282Z,19.35
2023-04-16T19:01:16.830Z,39.53
2023-04-16T19:03:45.799Z,23.52
2023-04-16T19:06:14.440Z,20.13
2023-04-16T19:08:42.360Z,18.10
2023-04-16T19:11:10.858Z,20.27
2023-04-16T19:13:39.425Z,28.60
2023-04-16T19:16:11.677Z,63.65
2023-04-16T19:18:39.645Z,53.15
2023-04-16T19:21:11.011Z,43.53
2023-04-16T19:23:39.888Z,44.65
2023-04-16T19:26:08.395Z,66.75
2023-04-16T19:28:36.499Z,21.50
2023-04-16T19:31:04.889Z,20.98
2023-04-16T19:33:32.494Z,22.88
2023-04-16T19:36:02.067Z,50.03
2023-04-16T19:38:32.136Z,40.13
2023-04-16T19:41:00.518Z,32.03
2023-04-16T19:43:31.045Z,37.08
2023-04-16T19:45:59.412Z,28.33
2023-04-16T19:48:27.095Z,30.55
2023-04-16T19:50:54.864Z,34.72
2023-04-16T19:53:22.316Z,29.42
2023-04-16T19:55:49.944Z,35.67
2023-04-16T19:58:17.541Z,33.65
2023-04-16T20:00:45.109Z,33.15
2023-04-16T20:03:12.484Z,23.63
2023-04-16T20:05:40.181Z,16.67
2023-04-16T20:08:07.575Z,19.33
2023-04-16T20:10:34.972Z,27.58
2023-04-16T20:13:05.347Z,30.75
2023-04-16T20:15:33.558Z,26.85
2023-04-16T20:18:01.579Z,27.48
2023-04-16T20:20:29.525Z,25.60
2023-04-16T20:22:57.014Z,26.27
2023-04-16T20:25:26.324Z,28.08
2023-04-16T20:27:53.872Z,31.60
2023-04-16T20:30:22.751Z,26.27
2023-04-16T20:32:50.083Z,20.33
2023-04-16T20:35:18.140Z,22.13
2023-04-16T20:37:45.370Z,25.58
2023-04-16T20:40:15.058Z,21.50
2023-04-16T20:42:46.292Z,25.33
2023-04-16T20:45:14.406Z,19.42
2023-04-16T20:47:43.514Z,21.58
2023-04-16T20:50:14.354Z,18.88
2023-04-16T20:52:52.062Z,18.00
2023-04-16T20:55:19.785Z,18.77
2023-04-16T20:57:47.191Z,18.08
2023-04-16T21:00:16.665Z,15.10
2023-04-16T21:02:44.544Z,16.63
2023-04-16T21:05:16.258Z,15.80
2023-04-16T21:07:43.567Z,15.00
2023-04-16T21:10:11.373Z,12.95
2023-04-16T21:12:38.554Z,12.57
2023-04-16T21:15:06.537Z,11.02
2023-04-16T21:17:34.111Z,8.75
2023-04-16T21:20:02.504Z,10.57
2023-04-16T21:22:30.536Z,11.93
2023-04-16T21:24:58.316Z,10.18
2023-04-16T21:27:25.771Z,9.23
2023-04-16T21:29:53.195Z,9.48
2023-04-16T21:32:20.387Z,9.45
2023-04-16T21:34:48.452Z,10.30
2023-04-16T21:37:15.672Z,9.23
2023-04-16T21:39:43.115Z,9.75
2023-04-16T21:42:10.500Z,8.68
2023-04-16T21:44:38.215Z,7.45
2023-04-16T21:47:05.795Z,7.80
2023-04-16T21:49:33.300Z,9.48
2023-04-16T21:52:02.451Z,8.90
2023-04-16T21:54:29.969Z,8.18
2023-04-16T21:56:58.037Z,11.05
2023-04-16T21:59:25.671Z,8.82
2023-04-16T22:01:52.871Z,12.43
2023-04-16T22:04:26.150Z,11.88
2023-04-16T22:06:57.127Z,9.52
2023-04-16T22:09:27.640Z,8.85
2023-04-16T22:11:54.663Z,8.00
2023-04-16T22:14:24.284Z,7.50
2023-04-16T22:16:51.765Z,7.32
2023-04-16T22:19:19.836Z,10.18
2023-04-16T22:21:47.866Z,7.55
2023-04-16T22:24:15.507Z,7.25
2023-04-16T22:26:42.754Z,7.53
2023-04-16T22:29:10.631Z,7.00
2023-04-16T22:31:38.442Z,7.40
2023-04-16T22:34:06.032Z,6.55
2023-04-16T22:36:33.119Z,5.70
2023-04-16T22:39:00.484Z,6.35
2023-04-16T22:41:27.490Z,8.82
2023-04-16T22:43:54.726Z,8.23
2023-04-16T22:46:22.370Z,12.52
2023-04-16T22:48:51.762Z,18.55
2023-04-16T22:51:18.767Z,10.27
2023-04-16T22:53:46.371Z,12.15
2023-04-16T22:56:13.365Z,11.25
2023-04-16T22:58:40.720Z,18.58
2023-04-16T23:01:07.903Z,10.82
2023-04-16T23:03:35.293Z,15.50
2023-04-16T23:06:03.888Z,18.98
2023-04-16T23:08:31.164Z,14.57
2023-04-16T23:10:58.132Z,15.05
2023-04-16T23:13:25.693Z,11.77
2023-04-16T23:15:52.811Z,9.48
2023-04-16T23:18:20.275Z,6.57
2023-04-16T23:20:50.911Z,9.07
2023-04-16T23:23:18.764Z,5.45
2023-04-16T23:25:45.825Z,6.88
2023-04-16T23:28:13.251Z,6.15
2023-04-16T23:30:40.314Z,5.57
2023-04-16T23:33:07.660Z,6.07
2023-04-16T23:35:34.746Z,6.28
2023-04-16T23:38:02.200Z,7.90
2023-04-16T23:40:29.581Z,7.68
2023-04-16T23:42:57.096Z,7.32
2023-04-16T23:45:24.213Z,6.20
2023-04-16T23:47:51.560Z,6.43
2023-04-16T23:50:18.618Z,5.95
2023-04-16T23:52:45.900Z,7.55
2023-04-16T23:55:12.919Z,6.93
2023-04-16T23:57:40.291Z,7.97
